Time;durP1;ratioP1;P1;durP2;ratioP2;P2;SDS_P1;SDS_P2;PMS_P1;PMS_P2;Temp;Humidity;BMP_temperature;BMP_pressure;BME280_temperature;BME280_humidity;BME280_pressure;Samples;Min_cycle;Max_cycle;Signal;HPM_P1;HPM_P2
2021/11/16 00:01:27;;;;;;;2.20;2.00;;;8.30;52.60;;;;;;4920248;29;20065;-85
2021/11/16 00:03:55;;;;;;;1.88;1.40;;;8.30;52.80;;;;;;4920206;29;20055;-84
2021/11/16 00:06:21;;;;;;;3.58;1.60;;;8.30;52.70;;;;;;4907709;29;20165;-84
2021/11/16 00:08:47;;;;;;;2.83;1.60;;;8.30;52.70;;;;;;4920595;29;20055;-87
2021/11/16 00:11:13;;;;;;;1.40;1.23;;;8.30;52.80;;;;;;4920066;29;20764;-84
2021/11/16 00:13:39;;;;;;;1.85;1.50;;;8.30;52.80;;;;;;4922873;29;20131;-84
2021/11/16 00:16:05;;;;;;;1.75;1.42;;;8.30;53.00;;;;;;4921767;29;20063;-86
2021/11/16 00:18:32;;;;;;;1.50;1.40;;;8.30;53.00;;;;;;4920360;29;20032;-85
2021/11/16 00:20:59;;;;;;;1.65;1.08;;;8.30;53.10;;;;;;4920585;29;20039;-84
2021/11/16 00:23:34;;;;;;;1.60;1.23;;;8.20;53.00;;;;;;4920682;29;20047;-85
2021/11/16 00:26:01;;;;;;;2.17;1.73;;;8.30;53.00;;;;;;4920407;29;20040;-86
2021/11/16 00:28:27;;;;;;;1.35;1.15;;;8.30;52.90;;;;;;4919836;29;20036;-86
2021/11/16 00:30:53;;;;;;;2.75;1.20;;;8.30;53.60;;;;;;4902929;29;20483;-84
2021/11/16 00:33:21;;;;;;;2.88;1.10;;;8.20;53.00;;;;;;4921245;29;20067;-86
2021/11/16 00:35:48;;;;;;;1.70;1.40;;;8.20;53.00;;;;;;4920800;29;20039;-87
2021/11/16 00:38:17;;;;;;;1.35;1.10;;;8.20;53.00;;;;;;4903785;29;20028;-88
2021/11/16 00:40:44;;;;;;;1.20;1.10;;;8.20;53.00;;;;;;4919826;29;20049;-87
2021/11/16 00:43:10;;;;;;;2.90;1.35;;;8.20;53.10;;;;;;4923000;29;20042;-85
2021/11/16 00:45:39;;;;;;;0.98;0.88;;;8.20;53.10;;;;;;4924815;29;20046;-89
2021/11/16 00:48:06;;;;;;;1.20;1.10;;;8.20;53.00;;;;;;4925001;29;20036;-88
2021/11/16 00:50:33;;;;;;;0.93;0.80;;;8.20;53.00;;;;;;4924218;29;20035;-85
2021/11/16 00:52:59;;;;;;;1.58;0.95;;;8.20;53.00;;;;;;4920990;29;20036;-86
2021/11/16 00:55:26;;;;;;;1.40;1.20;;;8.20;53.00;;;;;;4919370;29;20139;-88
2021/11/16 00:57:52;;;;;;;1.00;0.93;;;8.20;53.00;;;;;;4919487;29;20032;-87
2021/11/16 01:00:18;;;;;;;1.90;0.90;;;8.20;52.90;;;;;;4921513;29;20044;-85
2021/11/16 01:02:45;;;;;;;2.47;1.20;;;8.20;52.90;;;;;;4923046;29;20072;-91
2021/11/16 01:05:14;;;;;;;1.00;0.90;;;8.20;52.90;;;;;;4920558;29;20098;-90
2021/11/16 01:07:43;;;;;;;2.08;1.00;;;8.20;53.00;;;;;;4920317;29;20024;-92
2021/11/16 01:10:13;;;;;;;1.08;0.80;;;8.20;53.00;;;;;;4925609;29;20059;-90
2021/11/16 01:12:39;;;;;;;1.42;0.95;;;8.20;52.90;;;;;;4914139;29;20040;-87
2021/11/16 01:15:08;;;;;;;1.08;0.90;;;8.20;52.90;;;;;;4896769;29;20603;-82
2021/11/16 01:17:34;;;;;;;0.80;0.80;;;8.10;52.90;;;;;;4923318;29;20036;-86
2021/11/16 01:20:01;;;;;;;1.77;0.80;;;8.10;52.80;;;;;;4903342;29;20451;-88
2021/11/16 01:22:27;;;;;;;1.10;0.80;;;8.20;52.70;;;;;;4920292;29;20535;-83
2021/11/16 01:24:53;;;;;;;1.80;0.90;;;8.20;52.70;;;;;;4920686;29;20030;-88
2021/11/16 01:27:20;;;;;;;1.83;0.70;;;8.20;52.70;;;;;;4919123;29;20521;-87
2021/11/16 01:29:49;;;;;;;0.80;0.63;;;8.20;52.60;;;;;;4919921;29;20044;-83
2021/11/16 01:35:01;;;;;;;1.15;0.50;;;8.10;52.80;;;;;;4918837;29;20064;-86
2021/11/16 01:37:27;;;;;;;2.25;0.68;;;8.20;52.70;;;;;;4918628;29;20044;-85
2021/11/16 01:39:53;;;;;;;2.00;0.68;;;8.10;52.80;;;;;;4919564;29;20035;-87
2021/11/16 01:42:20;;;;;;;0.88;0.88;;;8.20;52.80;;;;;;4903636;29;20038;-87
2021/11/16 01:44:47;;;;;;;0.60;0.60;;;8.10;52.70;;;;;;4919905;29;20072;-85
2021/11/16 01:47:13;;;;;;;0.50;0.50;;;8.20;52.70;;;;;;4918867;29;20051;-88
2021/11/16 01:49:40;;;;;;;0.55;0.55;;;8.10;52.80;;;;;;4919698;29;20044;-86
2021/11/16 01:52:06;;;;;;;0.85;0.80;;;8.10;52.80;;;;;;4919764;29;20036;-85
2021/11/16 01:54:33;;;;;;;1.80;0.60;;;8.10;52.90;;;;;;4920864;29;20038;-87
2021/11/16 01:57:00;;;;;;;0.47;0.47;;;8.10;52.90;;;;;;4919637;29;20068;-87
2021/11/16 01:59:26;;;;;;;0.65;0.65;;;8.10;52.80;;;;;;4922713;29;20040;-85
2021/11/16 02:01:54;;;;;;;0.70;0.60;;;8.10;53.00;;;;;;4923810;29;20027;-86
2021/11/16 02:04:21;;;;;;;0.93;0.93;;;8.10;52.90;;;;;;4922195;29;20428;-87
2021/11/16 02:06:47;;;;;;;0.60;0.50;;;8.10;52.80;;;;;;4921872;29;20043;-84
2021/11/16 02:09:14;;;;;;;0.65;0.65;;;8.10;52.80;;;;;;4929036;29;20525;-90
2021/11/16 02:11:41;;;;;;;1.08;0.80;;;8.10;52.80;;;;;;4929226;29;20123;-86
2021/11/16 02:14:10;;;;;;;0.60;0.60;;;8.10;52.80;;;;;;4925637;29;20052;-84
2021/11/16 02:16:37;;;;;;;0.77;0.77;;;8.10;52.80;;;;;;4923789;29;20040;-90
2021/11/16 02:19:09;;;;;;;1.20;0.80;;;8.10;52.80;;;;;;4923919;29;20622;-89
2021/11/16 02:21:36;;;;;;;0.68;0.60;;;8.10;52.90;;;;;;4906789;29;20075;-90
2021/11/16 02:24:04;;;;;;;1.02;1.00;;;8.10;52.80;;;;;;4921515;29;20039;-85
2021/11/16 02:26:31;;;;;;;1.02;0.80;;;8.10;52.80;;;;;;4921712;29;20542;-84
2021/11/16 02:28:58;;;;;;;0.93;0.90;;;8.10;52.80;;;;;;4923277;29;20142;-87
2021/11/16 02:31:24;;;;;;;0.98;0.98;;;8.10;52.80;;;;;;4921601;29;20510;-86
2021/11/16 02:33:50;;;;;;;1.15;0.80;;;8.10;52.80;;;;;;4904837;29;20067;-84
2021/11/16 02:36:16;;;;;;;0.80;0.80;;;8.10;52.80;;;;;;4921951;29;20032;-88
2021/11/16 02:38:42;;;;;;;0.80;0.80;;;8.10;52.90;;;;;;4907001;29;20032;-85
2021/11/16 02:41:09;;;;;;;2.08;0.73;;;8.10;52.80;;;;;;4922952;29;20032;-86
2021/11/16 02:43:38;;;;;;;0.88;0.88;;;8.10;52.80;;;;;;4922119;29;20039;-86
2021/11/16 02:46:04;;;;;;;1.23;0.88;;;8.10;53.10;;;;;;4922083;29;20119;-86
2021/11/16 02:48:32;;;;;;;0.93;0.93;;;8.10;53.10;;;;;;4904752;29;20404;-86
2021/11/16 02:51:00;;;;;;;1.15;0.80;;;8.10;53.00;;;;;;4922870;29;20060;-88
2021/11/16 02:53:27;;;;;;;1.23;0.93;;;8.10;53.00;;;;;;4922442;29;20163;-83
2021/11/16 02:55:54;;;;;;;1.27;0.93;;;8.10;53.00;;;;;;4922458;29;20043;-88
2021/11/16 02:58:21;;;;;;;0.50;0.50;;;8.10;53.00;;;;;;4920734;29;20051;-86
2021/11/16 03:00:56;;;;;;;0.77;0.77;;;8.10;53.00;;;;;;4921385;29;20036;-84
2021/11/16 03:03:22;;;;;;;1.00;0.90;;;8.10;53.10;;;;;;4921111;29;20802;-86
2021/11/16 03:05:49;;;;;;;2.65;0.80;;;8.10;52.90;;;;;;4921964;29;20063;-87
2021/11/16 03:08:26;;;;;;;1.92;0.80;;;8.20;52.80;;;;;;4923886;29;20527;-86
2021/11/16 03:10:57;;;;;;;0.90;0.60;;;8.10;52.90;;;;;;4923674;29;20118;-87
2021/11/16 03:13:25;;;;;;;0.82;0.82;;;8.10;53.00;;;;;;4922588;29;20087;-90
2021/11/16 03:15:51;;;;;;;2.53;0.65;;;8.10;52.80;;;;;;4906493;29;20451;-89
2021/11/16 03:18:17;;;;;;;0.93;0.80;;;8.10;52.90;;;;;;4922934;29;20086;-88
2021/11/16 03:20:45;;;;;;;0.70;0.70;;;8.10;52.80;;;;;;4921912;29;20035;-87
2021/11/16 03:23:16;;;;;;;0.60;0.60;;;8.10;52.70;;;;;;4921492;29;20065;-87
2021/11/16 03:25:51;;;;;;;0.90;0.70;;;8.10;52.80;;;;;;4922077;29;20063;-89
2021/11/16 03:28:19;;;;;;;0.75;0.50;;;8.10;52.70;;;;;;4922475;29;20062;-90
2021/11/16 03:30:49;;;;;;;0.70;0.70;;;8.10;52.60;;;;;;4894123;29;20393;-89
2021/11/16 03:33:16;;;;;;;1.40;0.73;;;8.10;52.70;;;;;;4903669;29;20114;-87
2021/11/16 03:35:42;;;;;;;0.70;0.70;;;8.10;52.60;;;;;;4921300;29;20036;-88
2021/11/16 03:38:10;;;;;;;1.20;0.70;;;8.10;52.60;;;;;;4920911;29;20399;-88
2021/11/16 03:40:38;;;;;;;0.50;0.50;;;8.10;52.50;;;;;;4905197;29;20034;-87
2021/11/16 03:43:09;;;;;;;0.82;0.70;;;8.10;52.60;;;;;;4920831;29;20119;-87
2021/11/16 03:45:35;;;;;;;1.33;0.98;;;8.10;52.60;;;;;;4921976;29;20102;-90
2021/11/16 03:48:02;;;;;;;0.95;0.50;;;8.10;52.60;;;;;;4921010;29;20036;-90
2021/11/16 03:50:29;;;;;;;1.88;0.57;;;8.10;52.60;;;;;;4920735;29;20040;-88
2021/11/16 03:52:57;;;;;;;0.60;0.60;;;8.10;52.60;;;;;;4904575;29;20419;-87
2021/11/16 03:55:28;;;;;;;1.58;0.60;;;8.10;52.60;;;;;;4921003;29;20043;-90
2021/11/16 03:57:56;;;;;;;0.77;0.70;;;8.10;52.60;;;;;;4893333;29;20130;-88
2021/11/16 04:00:29;;;;;;;0.50;0.50;;;8.10;52.80;;;;;;4893281;29;20488;-91
2021/11/16 04:02:56;;;;;;;0.63;0.50;;;8.10;52.70;;;;;;4921520;29;20032;-84
2021/11/16 04:05:25;;;;;;;0.70;0.50;;;8.10;52.60;;;;;;4910920;29;20498;-85
2021/11/16 04:07:52;;;;;;;0.50;0.50;;;8.20;52.60;;;;;;4933455;29;20048;-87
2021/11/16 04:10:19;;;;;;;1.33;0.50;;;8.10;52.70;;;;;;4937382;29;20032;-88
2021/11/16 04:12:45;;;;;;;1.15;0.65;;;8.10;52.80;;;;;;4922911;29;20071;-90
2021/11/16 04:15:14;;;;;;;3.17;0.57;;;8.10;52.80;;;;;;4921763;29;20075;-87
2021/11/16 04:17:43;;;;;;;0.50;0.50;;;8.10;52.90;;;;;;4920766;29;20481;-89
2021/11/16 04:20:22;;;;;;;0.60;0.60;;;8.10;52.80;;;;;;4920235;29;20032;-88
2021/11/16 04:22:48;;;;;;;0.73;0.55;;;8.10;52.80;;;;;;4887338;29;21048;-91
2021/11/16 04:25:15;;;;;;;1.45;0.50;;;8.20;52.80;;;;;;4895909;29;20063;-90
2021/11/16 04:27:42;;;;;;;1.58;0.60;;;8.20;52.80;;;;;;4924778;29;20032;-90
2021/11/16 04:30:11;;;;;;;0.70;0.68;;;8.20;52.80;;;;;;4923030;29;20031;-87
2021/11/16 04:32:37;;;;;;;0.65;0.57;;;8.20;52.80;;;;;;4930542;29;20039;-90
2021/11/16 04:35:05;;;;;;;0.45;0.45;;;8.10;52.70;;;;;;4921848;29;20061;-88
2021/11/16 04:37:31;;;;;;;1.70;0.70;;;8.10;52.80;;;;;;4904938;29;20066;-87
2021/11/16 04:39:59;;;;;;;1.60;0.57;;;8.20;52.80;;;;;;4923756;29;20028;-87
2021/11/16 04:42:26;;;;;;;0.68;0.68;;;8.10;52.80;;;;;;4919789;29;20040;-86
2021/11/16 04:44:52;;;;;;;0.70;0.70;;;8.10;52.80;;;;;;4920372;29;20036;-83
2021/11/16 04:47:27;;;;;;;0.60;0.60;;;8.10;53.40;;;;;;4919270;29;20403;-82
2021/11/16 04:50:01;;;;;;;0.90;0.70;;;8.20;53.00;;;;;;4920177;29;20074;-84
2021/11/16 04:52:57;;;;;;;2.40;0.70;;;8.10;52.90;;;;;;4920918;29;20040;-81
2021/11/16 05:03:41;;;;;;;2.20;0.88;;;8.10;52.90;;;;;;4788138;29;20537;-81
2021/11/16 05:06:07;;;;;;;0.70;0.70;;;8.10;53.00;;;;;;4833281;29;20808;-79
2021/11/16 05:08:33;;;;;;;0.95;0.80;;;8.10;53.60;;;;;;4892594;29;20435;-79
2021/11/16 05:10:59;;;;;;;1.60;0.93;;;8.10;53.10;;;;;;4918548;29;20102;-82
2021/11/16 05:13:25;;;;;;;0.65;0.57;;;8.10;53.20;;;;;;4918435;29;20036;-82
2021/11/16 05:15:51;;;;;;;1.17;0.90;;;8.10;53.10;;;;;;4918630;29;20122;-83
2021/11/16 05:18:17;;;;;;;1.67;0.90;;;8.10;53.10;;;;;;4919905;29;20118;-86
2021/11/16 05:20:43;;;;;;;1.08;0.90;;;8.10;53.20;;;;;;4921318;29;20059;-86
2021/11/16 05:23:10;;;;;;;1.15;1.05;;;8.10;53.10;;;;;;4926249;29;20063;-92
2021/11/16 05:25:36;;;;;;;2.75;0.90;;;8.10;53.20;;;;;;4917844;29;20044;-92
2021/11/16 05:28:05;;;;;;;2.45;0.82;;;8.10;53.20;;;;;;4930752;29;20039;-91
2021/11/16 05:30:32;;;;;;;1.52;0.90;;;8.10;53.30;;;;;;4918449;29;20039;-92
2021/11/16 05:32:57;;;;;;;2.10;0.70;;;8.10;53.30;;;;;;4933608;29;20047;-92
2021/11/16 05:35:23;;;;;;;4.45;0.98;;;8.10;53.40;;;;;;4938776;29;20039;-91
2021/11/16 05:37:49;;;;;;;1.40;0.98;;;8.10;53.30;;;;;;4941452;29;20065;-92
2021/11/16 05:40:15;;;;;;;3.90;1.05;;;8.20;53.40;;;;;;4908964;29;20474;-89
2021/11/16 05:42:41;;;;;;;1.42;0.90;;;8.20;53.30;;;;;;4909589;29;20111;-91
2021/11/16 05:45:08;;;;;;;3.58;0.90;;;8.20;53.30;;;;;;4925003;29;20042;-84
2021/11/16 05:47:37;;;;;;;2.45;0.85;;;8.20;53.20;;;;;;4907958;29;20064;-92
2021/11/16 05:50:05;;;;;;;0.82;0.82;;;8.30;53.10;;;;;;4932413;29;20063;-87
2021/11/16 05:52:31;;;;;;;1.92;0.82;;;8.30;53.20;;;;;;4930119;29;20036;-86
2021/11/16 05:54:57;;;;;;;1.40;0.90;;;8.30;53.20;;;;;;4925989;29;20509;-88
2021/11/16 05:57:23;;;;;;;2.15;0.98;;;8.40;53.40;;;;;;4925021;29;20036;-86
2021/11/16 05:59:49;;;;;;;2.85;1.00;;;8.50;54.60;;;;;;4906437;29;20028;-88
2021/11/16 06:02:15;;;;;;;1.60;1.17;;;8.60;55.70;;;;;;4907690;29;20440;-85
2021/11/16 06:04:43;;;;;;;2.67;1.10;;;8.60;56.80;;;;;;4932120;29;20036;-87
2021/11/16 06:07:10;;;;;;;2.92;1.05;;;8.70;57.20;;;;;;4921021;29;20032;-85
2021/11/16 06:09:36;;;;;;;5.13;1.30;;;8.80;57.50;;;;;;4930026;29;20111;-89
2021/11/16 06:12:04;;;;;;;5.03;1.27;;;8.80;57.60;;;;;;4905108;29;20123;-84
2021/11/16 06:14:30;;;;;;;3.70;0.93;;;8.80;57.70;;;;;;4905618;29;20071;-87
2021/11/16 06:16:56;;;;;;;2.33;1.05;;;8.80;57.80;;;;;;4921808;29;20522;-88
2021/11/16 06:19:24;;;;;;;2.28;0.93;;;8.90;57.80;;;;;;4905458;29;20448;-89
2021/11/16 06:21:51;;;;;;;2.85;1.10;;;9.00;58.20;;;;;;4922559;29;20036;-92
2021/11/16 06:24:18;;;;;;;4.20;1.10;;;9.00;59.00;;;;;;4924372;29;20027;-91
2021/11/16 06:26:44;;;;;;;7.47;1.70;;;9.10;58.70;;;;;;4922581;29;20094;-91
2021/11/16 06:29:10;;;;;;;6.13;1.42;;;9.10;59.00;;;;;;4922955;29;20038;-93
2021/11/16 06:31:37;;;;;;;11.10;1.48;;;9.20;59.60;;;;;;4923673;29;20036;-94
2021/11/16 06:34:03;;;;;;;8.20;1.88;;;9.30;59.70;;;;;;4906357;29;20549;-89
2021/11/16 06:36:38;;;;;;;9.60;1.52;;;9.30;59.70;;;;;;4921062;29;20181;-90
2021/11/16 06:39:05;;;;;;;6.03;1.30;;;9.40;59.60;;;;;;4924698;29;20042;-89
2021/11/16 06:41:32;;;;;;;6.97;1.40;;;9.50;59.70;;;;;;4933993;29;20035;-88
2021/11/16 06:43:58;;;;;;;8.43;1.75;;;9.50;59.60;;;;;;4900215;29;20039;-88
2021/11/16 06:46:24;;;;;;;5.03;1.67;;;9.60;59.60;;;;;;4928279;29;20039;-90
2021/11/16 06:48:50;;;;;;;4.72;1.52;;;9.70;59.60;;;;;;4903848;29;20123;-91
2021/11/16 06:51:16;;;;;;;10.38;1.73;;;9.80;59.60;;;;;;4906460;29;20036;-91
2021/11/16 06:53:42;;;;;;;9.63;1.40;;;9.90;59.60;;;;;;4906169;29;20032;-90
2021/11/16 06:56:08;;;;;;;6.13;1.33;;;9.90;59.50;;;;;;4906579;29;20074;-83
2021/11/16 06:58:38;;;;;;;10.35;1.88;;;9.90;59.50;;;;;;4911020;29;20051;-95
2021/11/16 07:03:39;;;;;;;6.75;1.80;;;10.00;56.90;;;;;;5900763;23;20011;-90
2021/11/16 07:06:05;;;;;;;2.85;1.42;;;10.00;54.70;;;;;;5050959;23;20048;-88
2021/11/16 07:08:39;;;;;;;4.47;1.60;;;10.00;54.30;;;;;;4991116;23;20052;-81
2021/11/16 07:11:20;;;;;;;5.68;1.80;;;10.00;54.10;;;;;;5010295;23;20288;-90
2021/11/16 07:14:06;;;;;;;3.13;1.70;;;9.90;53.90;;;;;;4921238;29;20099;-89
2021/11/16 07:16:56;;;;;;;3.55;1.90;;;9.90;53.60;;;;;;4911190;29;20060;-91
2021/11/16 07:19:35;;;;;;;4.20;1.83;;;9.90;53.70;;;;;;4899331;29;20048;-90
2021/11/16 07:22:14;;;;;;;4.10;1.83;;;9.90;53.60;;;;;;4898538;29;20047;-90
2021/11/16 07:25:06;;;;;;;4.40;1.75;;;9.90;54.20;;;;;;4900464;29;20051;-94
2021/11/16 07:27:46;;;;;;;4.07;2.60;;;9.90;53.50;;;;;;4895680;29;20052;-91
2021/11/16 07:30:15;;;;;;;6.60;2.00;;;9.80;53.40;;;;;;4896076;29;20032;-89
2021/11/16 07:33:14;;;;;;;4.95;1.77;;;9.90;53.50;;;;;;4894741;29;20040;-92
2021/11/16 07:35:43;;;;;;;8.10;2.20;;;9.80;53.10;;;;;;4896663;29;20477;-89
2021/11/16 07:38:15;;;;;;;6.00;1.65;;;9.80;53.10;;;;;;4886726;29;20105;-89
2021/11/16 07:40:46;;;;;;;4.60;1.80;;;9.80;53.30;;;;;;4893842;29;20071;-94
2021/11/16 07:43:18;;;;;;;6.85;1.60;;;9.80;53.60;;;;;;4894537;29;20043;-95
2021/11/16 07:45:49;;;;;;;4.57;1.70;;;9.80;53.10;;;;;;4897968;29;20099;-93
2021/11/16 07:48:20;;;;;;;3.40;1.70;;;9.80;53.00;;;;;;4898629;29;20036;-95
2021/11/16 07:50:57;;;;;;;7.88;1.80;;;9.80;53.40;;;;;;4898018;29;20055;-93
2021/11/16 07:53:33;;;;;;;6.05;1.67;;;9.80;52.90;;;;;;4899365;29;20515;-94
2021/11/16 07:56:01;;;;;;;;;;;9.80;52.90;;;;;;4894754;29;20041;-92
2021/11/16 07:58:32;;;;;;;6.10;1.60;;;9.80;52.60;;;;;;4896523;29;19926;-87
2021/11/16 08:01:02;;;;;;;6.10;1.75;;;9.80;52.20;;;;;;4895631;29;20128;-93
2021/11/16 08:03:35;;;;;;;6.75;2.10;;;9.70;52.40;;;;;;4910667;29;20376;-80
2021/11/16 08:06:14;;;;;;;29.13;14.73;;;9.70;52.60;;;;;;4910742;29;20028;-86
2021/11/16 08:11:31;;;;;;;5.40;2.42;;;9.80;52.70;;;;;;4900892;29;20040;-92
2021/11/16 08:14:00;;;;;;;7.88;2.40;;;9.70;52.30;;;;;;4904461;29;20032;-84
2021/11/16 08:16:29;;;;;;;5.40;1.88;;;9.70;52.50;;;;;;4912954;29;20088;-93
2021/11/16 08:19:09;;;;;;;4.75;1.92;;;9.70;52.30;;;;;;4914157;29;20066;-92
2021/11/16 08:27:40;;;;;;;4.10;1.40;;;9.70;52.30;;;;;;5022853;23;20513;-87
2021/11/16 08:30:14;;;;;;;4.55;2.03;;;9.60;52.40;;;;;;4909060;29;20100;-88
2021/11/16 08:32:43;;;;;;;2.22;1.65;;;9.60;52.50;;;;;;4929916;29;20037;-93
2021/11/16 08:35:15;;;;;;;7.75;2.60;;;9.60;52.10;;;;;;4920119;29;20032;-90
2021/11/16 08:37:41;;;;;;;6.70;1.50;;;9.60;51.90;;;;;;4923640;29;20115;-91
2021/11/16 08:40:16;;;;;;;3.42;1.83;;;9.50;51.80;;;;;;4923988;29;20080;-82
2021/11/16 08:42:51;;;;;;;5.43;1.92;;;9.50;51.80;;;;;;4911231;29;20039;-94
2021/11/16 08:45:25;;;;;;;3.03;2.00;;;9.40;52.10;;;;;;4902014;29;20136;-91
2021/11/16 08:47:57;;;;;;;4.20;2.20;;;9.40;52.30;;;;;;4914159;29;20071;-90
2021/11/16 08:50:54;;;;;;;5.50;2.00;;;9.40;52.50;;;;;;4915312;29;20150;-94
2021/11/16 08:53:29;;;;;;;5.22;2.50;;;9.40;52.50;;;;;;4897009;29;20054;-92
2021/11/16 08:55:57;;;;;;;5.68;1.83;;;9.40;52.40;;;;;;4915967;29;20032;-88
2021/11/16 08:58:29;;;;;;;3.88;2.15;;;9.40;52.50;;;;;;4930346;29;20044;-90
2021/11/16 09:01:01;;;;;;;4.95;1.95;;;9.30;52.40;;;;;;4916381;29;20119;-91
2021/11/16 09:03:33;;;;;;;1.92;1.80;;;9.30;52.30;;;;;;4934184;29;20040;-85
2021/11/16 09:06:02;;;;;;;5.05;2.10;;;9.30;52.30;;;;;;4902909;29;20036;-89
2021/11/16 09:08:32;;;;;;;2.97;2.00;;;9.30;52.30;;;;;;4921966;29;20035;-82
2021/11/16 09:11:10;;;;;;;4.68;2.60;;;9.30;52.30;;;;;;4921149;29;20036;-93
2021/11/16 09:13:37;;;;;;;5.18;2.40;;;9.20;52.40;;;;;;4918866;29;20109;-94
2021/11/16 09:16:10;;;;;;;4.40;2.00;;;9.20;52.80;;;;;;4901494;29;20127;-88
2021/11/16 09:18:40;;;;;;;6.28;2.72;;;9.20;52.40;;;;;;4883841;29;20131;-92
2021/11/16 09:21:17;;;;;;;3.40;2.08;;;9.20;52.30;;;;;;4918972;29;20091;-93
2021/11/16 09:23:50;;;;;;;4.95;2.30;;;9.20;52.20;;;;;;4923113;29;20127;-87
2021/11/16 09:26:30;;;;;;;4.70;2.13;;;9.10;52.10;;;;;;4924315;29;20135;-89
2021/11/16 09:28:58;;;;;;;6.90;2.28;;;9.10;52.20;;;;;;4932957;29;20040;-92
2021/11/16 09:31:30;;;;;;;5.47;1.95;;;9.10;52.20;;;;;;4918450;29;20095;-91
2021/11/16 09:34:21;;;;;;;9.95;2.92;;;9.10;52.20;;;;;;4920973;29;20088;-92
2021/11/16 09:36:57;;;;;;;4.00;2.40;;;9.10;52.40;;;;;;4918277;29;20043;-94
2021/11/16 09:39:30;;;;;;;5.75;2.40;;;9.10;52.60;;;;;;4918946;29;20035;-91
2021/11/16 09:42:05;;;;;;;4.40;2.42;;;9.00;52.20;;;;;;4900951;29;20040;-89
2021/11/16 09:44:33;;;;;;;8.52;2.33;;;9.00;52.30;;;;;;4901335;29;20472;-92
2021/11/16 09:47:07;;;;;;;4.45;2.67;;;9.00;52.20;;;;;;4915268;29;20044;-91
2021/11/16 09:49:39;;;;;;;5.22;2.30;;;9.00;52.40;;;;;;4889688;29;20046;-92
2021/11/16 09:52:09;;;;;;;8.25;2.72;;;9.00;52.20;;;;;;4915763;29;20036;-92
2021/11/16 09:55:07;;;;;;;6.60;2.75;;;9.00;52.20;;;;;;4920011;29;20051;-87
2021/11/16 09:57:37;;;;;;;4.35;2.35;;;9.00;52.30;;;;;;4912687;29;20052;-92
2021/11/16 10:00:14;;;;;;;5.78;2.35;;;9.00;52.50;;;;;;4924203;29;20032;-92
2021/11/16 10:02:45;;;;;;;6.15;2.60;;;9.00;52.20;;;;;;4932335;29;20035;-86
2021/11/16 10:05:25;;;;;;;7.20;2.97;;;8.90;52.20;;;;;;4920381;29;20063;-83
2021/11/16 10:07:58;;;;;;;7.00;2.60;;;8.90;52.30;;;;;;4915612;29;20104;-87
2021/11/16 10:10:27;;;;;;;5.13;2.95;;;9.00;52.60;;;;;;4918866;29;20170;-92
2021/11/16 10:12:56;;;;;;;5.03;2.47;;;9.00;52.40;;;;;;4917467;29;20044;-90
2021/11/16 10:15:27;;;;;;;7.93;3.35;;;9.00;52.40;;;;;;4917706;29;20038;-93
2021/11/16 10:17:53;;;;;;;5.30;2.70;;;9.00;52.40;;;;;;4916935;29;20040;-90
2021/11/16 10:20:23;;;;;;;5.80;3.10;;;9.00;52.40;;;;;;4920278;29;20684;-93
2021/11/16 10:22:51;;;;;;;8.45;2.92;;;9.00;52.30;;;;;;4917375;29;20036;-92
2021/11/16 10:25:20;;;;;;;7.55;2.60;;;8.90;52.10;;;;;;4915356;29;20499;-91
2021/11/16 10:27:48;;;;;;;8.25;2.60;;;9.00;52.10;;;;;;4916512;29;20047;-93
2021/11/16 10:30:20;;;;;;;6.20;2.70;;;9.00;52.00;;;;;;4917876;29;20027;-94
2021/11/16 10:33:06;;;;;;;4.35;2.67;;;9.00;52.10;;;;;;4918444;29;20028;-93
2021/11/16 10:35:32;;;;;;;10.18;3.03;;;9.00;52.10;;;;;;4901096;29;20040;-87
2021/11/16 10:37:58;;;;;;;7.82;3.70;;;9.00;52.10;;;;;;4906418;29;20069;-89
2021/11/16 10:40:27;;;;;;;5.35;2.83;;;9.00;52.20;;;;;;4915642;29;20059;-89
2021/11/16 10:42:58;;;;;;;8.73;2.70;;;9.00;52.10;;;;;;4915984;29;20036;-90
2021/11/16 10:45:26;;;;;;;6.95;3.17;;;9.00;52.10;;;;;;4930735;29;20043;-89
2021/11/16 10:47:57;;;;;;;4.25;2.67;;;9.00;52.10;;;;;;4914226;29;20024;-88
2021/11/16 10:50:26;;;;;;;9.63;2.70;;;8.90;51.80;;;;;;4916897;29;20658;-94
2021/11/16 10:53:09;;;;;;;9.57;2.88;;;9.00;52.00;;;;;;4917735;29;20125;-85
2021/11/16 10:55:47;;;;;;;8.10;2.80;;;9.00;51.90;;;;;;4903346;29;20032;-94
2021/11/16 10:58:38;;;;;;;7.28;2.80;;;9.00;51.90;;;;;;4917197;29;20046;-94
2021/11/16 11:01:08;;;;;;;9.40;2.75;;;9.00;52.00;;;;;;4902388;29;20055;-84
2021/11/16 11:03:42;;;;;;;8.85;2.67;;;9.00;51.60;;;;;;4933042;29;20032;-84
2021/11/16 11:06:10;;;;;;;8.57;3.08;;;9.00;51.60;;;;;;4919889;29;20048;-81
2021/11/16 11:08:58;;;;;;;6.80;3.00;;;9.00;51.60;;;;;;4925619;29;20104;-89
2021/11/16 11:11:28;;;;;;;5.28;2.67;;;9.00;51.60;;;;;;4926051;29;20103;-92
2021/11/16 11:14:12;;;;;;;5.90;3.03;;;9.00;51.60;;;;;;4906291;29;20035;-92
2021/11/16 11:16:40;;;;;;;8.65;2.75;;;9.00;51.50;;;;;;4916569;29;20051;-90
2021/11/16 11:19:15;;;;;;;4.40;2.60;;;9.00;51.40;;;;;;4903970;29;20032;-93
2021/11/16 11:21:52;;;;;;;4.65;3.25;;;9.00;51.50;;;;;;4898876;29;20605;-94
2021/11/16 11:24:28;;;;;;;7.68;2.95;;;9.00;51.20;;;;;;4908523;29;20040;-92
2021/11/16 11:27:09;;;;;;;6.55;3.30;;;9.00;51.30;;;;;;4920785;29;20127;-92
2021/11/16 11:29:41;;;;;;;5.95;2.88;;;9.00;51.30;;;;;;4919916;29;20048;-92
2021/11/16 11:32:09;;;;;;;5.43;2.85;;;9.00;51.00;;;;;;4906992;29;20050;-92
2021/11/16 11:34:58;;;;;;;4.57;2.80;;;9.00;51.20;;;;;;4918425;29;20044;-90
2021/11/16 11:37:32;;;;;;;5.15;2.63;;;9.00;51.10;;;;;;4917723;29;20059;-92
2021/11/16 11:40:03;;;;;;;6.32;2.40;;;9.00;51.20;;;;;;4933639;29;20041;-89
2021/11/16 11:42:36;;;;;;;4.60;2.92;;;9.00;51.00;;;;;;4918518;29;20120;-86
2021/11/16 11:47:45;;;;;;;7.85;2.85;;;9.00;50.80;;;;;;4905131;29;20055;-93
2021/11/16 11:50:31;;;;;;;5.03;2.58;;;9.00;51.00;;;;;;4921766;29;20056;-92
2021/11/16 11:53:03;;;;;;;7.05;2.70;;;9.00;51.00;;;;;;4921517;29;20043;-90
2021/11/16 11:55:31;;;;;;;8.02;3.10;;;9.00;50.80;;;;;;4905708;29;20048;-88
2021/11/16 11:57:59;;;;;;;4.63;2.55;;;9.00;50.70;;;;;;4935113;29;20024;-93
2021/11/16 12:00:26;;;;;;;5.55;2.78;;;9.10;50.80;;;;;;4928944;29;20035;-91
2021/11/16 12:02:53;;;;;;;7.40;2.88;;;9.10;50.80;;;;;;4943269;28;20048;-86
2021/11/16 12:05:19;;;;;;;5.97;2.85;;;9.10;50.50;;;;;;4931288;29;20040;-86
2021/11/16 12:07:46;;;;;;;6.82;2.80;;;9.10;50.60;;;;;;4917933;29;20044;-87
2021/11/16 12:10:13;;;;;;;6.90;2.67;;;9.10;50.30;;;;;;4895245;29;20055;-87
2021/11/16 12:12:39;;;;;;;4.97;2.90;;;9.00;50.20;;;;;;4911536;29;20048;-88
2021/11/16 12:15:09;;;;;;;5.70;2.78;;;9.00;50.10;;;;;;4908401;29;20484;-86
2021/11/16 12:17:47;;;;;;;5.15;2.63;;;9.10;50.30;;;;;;4891496;29;20043;-86
2021/11/16 12:20:32;;;;;;;8.80;3.03;;;9.10;50.40;;;;;;4892265;29;20035;-87
2021/11/16 12:22:58;;;;;;;5.47;2.70;;;9.10;50.40;;;;;;4910232;29;20028;-89
2021/11/16 12:25:25;;;;;;;9.32;2.42;;;9.10;50.20;;;;;;4913352;29;20047;-87
2021/11/16 12:27:51;;;;;;;4.68;2.45;;;9.10;50.30;;;;;;4908104;29;20044;-86
2021/11/16 12:30:22;;;;;;;7.00;2.78;;;9.00;50.20;;;;;;4910747;29;20458;-87
2021/11/16 12:32:51;;;;;;;10.23;3.03;;;9.00;50.10;;;;;;4911349;29;20067;-83
2021/11/16 12:35:20;;;;;;;7.28;2.63;;;9.00;50.10;;;;;;4897776;29;20127;-87
2021/11/16 12:37:58;;;;;;;9.35;3.58;;;9.00;50.20;;;;;;4913311;29;20071;-87
2021/11/16 12:40:34;;;;;;;7.78;2.85;;;9.00;50.20;;;;;;4913295;29;20177;-88
2021/11/16 12:43:13;;;;;;;7.85;2.90;;;9.00;50.10;;;;;;4908218;29;20040;-86
2021/11/16 12:45:49;;;;;;;6.97;2.90;;;9.00;50.20;;;;;;4895493;29;20073;-87
2021/11/16 12:48:19;;;;;;;7.32;3.08;;;9.00;50.80;;;;;;4881196;29;20043;-85
2021/11/16 12:51:12;;;;;;;5.88;2.90;;;9.00;50.20;;;;;;4906803;29;20032;-84
2021/11/16 12:54:19;;;;;;;7.07;2.20;;;9.00;51.10;;;;;;4909964;29;20060;-83
2021/11/16 12:56:48;;;;;;;4.35;2.55;;;9.10;52.70;;;;;;4841534;29;20398;-83
2021/11/16 12:59:40;;;;;;;4.40;2.45;;;9.10;53.10;;;;;;4841798;29;20128;-83
2021/11/16 13:02:20;;;;;;;7.55;1.98;;;9.20;53.40;;;;;;4899704;29;20040;-82
2021/11/16 13:04:50;;;;;;;6.90;1.90;;;9.30;53.50;;;;;;4907695;29;20406;-81
2021/11/16 13:07:30;;;;;;;5.32;1.92;;;9.30;53.50;;;;;;4896438;29;20127;-83
2021/11/16 13:10:04;;;;;;;6.15;2.30;;;9.40;53.60;;;;;;4913028;29;20068;-83
2021/11/16 13:12:44;;;;;;;5.55;2.47;;;9.40;53.60;;;;;;4910709;29;20032;-83
2021/11/16 13:15:36;;;;;;;3.80;1.90;;;9.50;53.70;;;;;;4907570;29;20410;-83
2021/11/16 13:18:26;;;;;;;6.07;2.20;;;9.50;53.70;;;;;;4908954;29;20040;-81
2021/11/16 13:21:18;;;;;;;5.15;2.42;;;9.60;53.60;;;;;;4908617;29;20483;-80
2021/11/16 13:23:52;;;;;;;3.55;2.03;;;9.60;53.60;;;;;;4908512;29;20048;-82
2021/11/16 13:26:26;;;;;;;4.82;2.22;;;9.60;53.60;;;;;;4909693;29;20113;-81
2021/11/16 13:28:58;;;;;;;3.50;2.22;;;9.70;54.30;;;;;;4911847;29;20063;-82
2021/11/16 13:31:38;;;;;;;3.45;2.22;;;9.70;53.60;;;;;;4910579;29;20144;-82
2021/11/16 13:34:14;;;;;;;5.90;2.25;;;9.70;53.70;;;;;;4896020;29;20040;-82
2021/11/16 13:36:45;;;;;;;;;;;9.70;53.70;;;;;;4925332;29;20403;-84
2021/11/16 13:39:14;;;;;;;7.22;1.92;;;9.70;53.60;;;;;;4911748;29;19915;-82
2021/11/16 13:42:01;;;;;;;5.43;2.20;;;9.70;53.70;;;;;;4910186;29;20028;-82